Flight Track Log - Related Links

Times and Time Zones

All times are in EDT time to prevent confusion due to time zone crossing. See the N703RM flight status page for this flight to view local times or setup timezone preferences in your user account.

Time Position Orientation Groundspeed Altitude Reporting Facility
EDT Latitude Longitude Course Direction KTS MPH feet Rate Location/Type
Wed 10:05:54 AM 38.6833 -77.5000 237° Southwest 163 188 1,100  Level Potomac TRACON
Wed 10:06:49 AM 38.6667 -77.5333 237° Southwest 184 212 2,100 1,148 Climbing Potomac TRACON
Wed 10:07:49 AM 38.6667 -77.5833 270° West 178 205 3,300 1,200 Climbing Potomac TRACON
Wed 10:08:49 AM 38.6667 -77.6500 270° West 192 221 4,500 1,190 Climbing Potomac TRACON
Wed 10:09:50 AM 38.6500 -77.7333 256° West 197 227 5,700 1,136 Climbing Potomac TRACON
Wed 10:11:01 AM 38.6486 -77.8036 269° West 197 227 7,000 1,191 Climbing Washington Center
Wed 10:12:01 AM 38.6389 -77.8736 260° West 199 229 8,300 1,220 Climbing Washington Center
Wed 10:13:04 AM 38.6047 -77.9328 234° Southwest 203 234 9,500 1,258 Climbing Washington Center
Wed 10:14:05 AM 38.5706 -77.9903 233° Southwest 202 232 10,900 1,344 Climbing Washington Center
Wed 10:15:09 AM 38.5375 -78.0444 232° Southwest 198 228 12,300 1,392 Climbing Washington Center
Wed 10:16:10 AM 38.4983 -78.1094 232° Southwest 194 223 13,800 1,296 Climbing Washington Center
Wed 10:17:14 AM 38.4642 -78.1672 233° Southwest 198 228 15,000 1,152 Climbing Washington Center
Wed 10:18:15 AM 38.4278 -78.2258 232° Southwest 209 241 16,200 1,190 Climbing Washington Center
Wed 10:19:15 AM 38.3700 -78.2528 200° South 218 251 17,400 1,113 Climbing Washington Center
Wed 10:20:19 AM 38.3139 -78.2794 200° South 218 251 18,500 1,056 Climbing Washington Center
Wed 10:21:20 AM 38.2581 -78.3056 200° South 215 247 19,600 1,104 Climbing Washington Center
Wed 10:22:24 AM 38.1878 -78.3381 200° South 220 253 20,800 1,056 Climbing Washington Center
Wed 10:23:25 AM 38.1278 -78.3656 200° South 225 259 21,800 864 Climbing Washington Center
Wed 10:24:29 AM 38.0689 -78.3919 199° South 225 259 22,600 774 Climbing Washington Center
Wed 10:26:31 AM 37.9417 -78.4500 200° South 229 264 24,200 742 Climbing Washington Center
Wed 10:27:35 AM 37.8794 -78.4778 199° South 234 269 24,900 624 Climbing Washington Center
Wed 10:28:36 AM 37.8178 -78.5067 200° South 236 272 25,500 532 Climbing Washington Center
Wed 10:29:39 AM 37.7547 -78.5331 198° South 237 273 26,000 242 Climbing Washington Center
Wed 10:30:40 AM 37.6906 -78.5631 200° South 242 278 26,000  Level Washington Center
Wed 10:31:41 AM 37.6083 -78.6011 200° South 254 292 26,000  Level Washington Center
Wed 10:32:45 AM 37.5386 -78.6314 199° South 263 303 26,000  Level Washington Center
Wed 10:33:46 AM 37.4697 -78.6625 200° South 262 302 26,000  Level Washington Center
Wed 10:34:50 AM 37.4019 -78.6925 199° South 261 300 26,000  Level Washington Center
Wed 10:35:51 AM 37.3344 -78.7222 199° South 259 298 26,000  Level Washington Center
Wed 10:36:55 AM 37.2667 -78.7528 200° South 259 298 26,000  Level Washington Center
Wed 10:37:55 AM 37.1853 -78.7892 200° South 259 298 26,000  Level Washington Center
Wed 10:38:58 AM 37.1169 -78.8197 200° South 259 298 26,000  Level Washington Center
Wed 10:39:59 AM 37.0481 -78.8489 199° South 259 298 26,000  Level Washington Center
Wed 10:41:03 AM 36.9808 -78.8797 200° South 259 298 26,000  Level Washington Center
Wed 10:42:03 AM 36.9111 -78.9114 200° South 261 300 26,000  Level Washington Center
Wed 10:43:07 AM 36.8436 -78.9414 200° South 259 298 26,000  Level Washington Center
Wed 10:44:11 AM 36.7619 -78.9772 199° South 260 299 26,000  Level Washington Center
Wed 10:45:11 AM 36.6936 -79.0069 199° South 260 299 26,000  Level Washington Center
Wed 10:46:11 AM 36.6300 -79.0272 194° South 262 302 26,000  Level Washington Center
Wed 10:47:15 AM 36.5444 -79.0478 191° South 262 302 26,000  Level Washington Center
Wed 10:48:16 AM 36.4719 -79.0669 192° South 263 303 26,000  Level Washington Center
Wed 10:49:19 AM 36.4003 -79.0844 191° South 263 303 26,000  Level Washington Center
Wed 10:50:23 AM 36.3278 -79.1028 192° South 264 304 26,000  Level Washington Center
Wed 10:51:24 AM 36.2553 -79.1214 192° South 265 305 26,000  Level Washington Center
Wed 10:52:27 AM 36.1694 -79.1417 191° South 264 304 26,000  Level Washington Center
Wed 10:53:28 AM 36.0964 -79.1594 191° South 265 305 26,000  Level Washington Center
Wed 10:54:29 AM 36.0256 -79.1769 191° South 264 304 26,000  Level Washington Center
Wed 10:55:33 AM 35.9539 -79.1944 191° South 264 304 26,000  Level Washington Center
Wed 10:56:34 AM 35.8825 -79.2125 192° South 264 304 26,000  Level Washington Center
Wed 10:57:38 AM 35.8108 -79.2297 191° South 263 303 26,000  Level Washington Center
Wed 10:58:38 AM 35.7253 -79.2517 192° South 263 303 26,000  Level Washington Center
Wed 10:59:41 AM 35.6542 -79.2678 190° South 263 303 26,000  Level Washington Center
Wed 11:00:42 AM 35.5833 -79.2853 191° South 263 303 26,000  Level Washington Center
Wed 11:01:46 AM 35.5111 -79.3025 191° South 263 303 26,000  Level Washington Center
Wed 11:02:46 AM 35.4397 -79.3203 191° South 263 303 26,000  Level Washington Center
Wed 11:03:49 AM 35.3536 -79.3408 191° South 263 303 26,000  Level Washington Center
Wed 11:04:53 AM 35.2814 -79.3575 191° South 263 303 26,000  Level Washington Center
Wed 11:05:53 AM 35.2094 -79.3742 191° South 263 303 26,000  Level Washington Center
Wed 11:06:57 AM 35.1381 -79.3917 191° South 263 303 26,000  Level Washington Center
Wed 11:07:57 AM 35.0658 -79.4103 192° South 263 303 26,000  Level Washington Center
Wed 11:09:01 AM 34.9792 -79.4306 191° South 264 304 26,000  Level Washington Center
Wed 11:10:02 AM 34.9086 -79.4475 191° South 262 302 26,000  Level Washington Center
Wed 11:11:06 AM 34.8358 -79.4644 191° South 263 303 26,000  Level Washington Center
Wed 11:12:07 AM 34.7633 -79.4822 191° South 263 303 26,000  Level Washington Center
Wed 11:13:10 AM 34.6917 -79.4986 191° South 264 304 26,000  Level Washington Center
Wed 11:14:12 AM 34.6050 -79.5192 191° South 264 304 26,000  Level Washington Center
Wed 11:15:12 AM 34.5322 -79.5364 191° South 267 307 26,000  Level Washington Center
Wed 11:16:16 AM 34.4611 -79.5550 192° South 263 303 26,000  Level Washington Center
Wed 11:17:16 AM 34.3881 -79.5714 190° South 264 304 26,000  Level Washington Center
Wed 11:18:21 AM 34.3153 -79.5878 191° South 264 304 26,000  Level Washington Center
Wed 11:19:22 AM 34.2278 -79.6108 192° South 264 304 26,000  Level Washington Center
Wed 11:20:19 AM 34.1722 -79.6422 205° Southwest 262 302 26,000 -256 Level Jacksonville Center
Wed 11:21:19 AM 34.1000 -79.6725 199° South 262 302 25,500 -600 Descending Jacksonville Center
Wed 11:22:19 AM 34.0258 -79.7103 203° Southwest 282 325 24,800 -750 Descending Jacksonville Center
Wed 11:23:19 AM 33.9536 -79.7456 202° Southwest 287 330 24,000 -850 Descending Jacksonville Center
Wed 11:24:19 AM 33.8775 -79.7858 204° Southwest 287 330 23,100 -900 Descending Jacksonville Center
Wed 11:25:19 AM 33.8100 -79.8406 214° Southwest 287 330 22,200 -1,050 Descending Jacksonville Center
Wed 11:26:19 AM 33.7489 -79.9103 223° Southwest 293 337 21,000 -1,200 Descending Jacksonville Center
Wed 11:27:19 AM 33.6922 -79.9794 225° Southwest 300 345 19,800 -1,250 Descending Jacksonville Center
Wed 11:28:19 AM 33.6333 -80.0514 225° Southwest 300 345 18,500 -1,300 Descending Jacksonville Center
Wed 11:29:19 AM 33.5700 -80.1133 219° Southwest 300 345 17,200 -1,350 Descending Jacksonville Center
Wed 11:30:19 AM 33.4886 -80.1133 180° South 284 327 15,800 -1,450 Descending Jacksonville Center
Wed 11:31:19 AM 33.4047 -80.0886 166° South 278 320 14,300 -1,500 Descending Jacksonville Center
Wed 11:32:19 AM 33.3228 -80.0686 168° South 291 335 12,800 -1,500 Descending Jacksonville Center
Wed 11:33:19 AM 33.2431 -80.0514 170° South 298 343 11,300 -1,500 Descending Jacksonville Center
Wed 11:34:19 AM 33.1708 -80.0017 150° Southeast 292 336 9,800 -1,500 Descending Jacksonville Center
Wed 11:35:19 AM 33.1069 -79.9417 142° Southeast 291 335 8,300 -1,550 Descending Jacksonville Center
Wed 11:36:19 AM 33.0453 -79.8867 143° Southeast 291 335 6,700 -1,550 Descending Jacksonville Center
Wed 11:37:19 AM 32.9733 -79.8494 157° South 285 328 5,200 -1,500 Descending Jacksonville Center
Wed 11:38:19 AM 32.9081 -79.8244 162° South 267 307 3,700 -1,150 Descending Jacksonville Center
Wed 11:39:19 AM 32.8414 -79.8367 189° South 226 260 2,900 -800 Descending Jacksonville Center
Wed 11:41:00 AM 32.7567 -79.9345 224° Southwest  Level FlightAware Approximate
Wed 11:48:00 AM 32.7000 -80.0000 226° Southwest  Level FlightAware Approximate
Wed 11:49:00 AM 32.7010 -80.0033 291° West  Level Estimated
Wed 11:50:00 AM 32.7010 -80.0033 North  Level Estimated
Wed 11:51:00 AM 32.7010 -80.0033 North  Level Estimated
Wed 11:52:00 AM 32.7010 -80.0033 North  Level Estimated
Wed 11:53:00 AM 32.7010 -80.0033 North  Level Estimated
Wed 11:54:00 AM 32.7010 -80.0033 North  Level Estimated
Wed 11:55:00 AM 32.7010 -80.0033 North  Level Estimated
Wed 11:56:00 AM 32.7010 -80.0033 North  Level Estimated
Wed 11:57:00 AM 32.7010 -80.0033 North  Level Estimated
Wed 11:58:00 AM 32.7010 -80.0033 North  Level Estimated
Wed 11:59:00 AM 32.7010 -80.0033 North  Level Estimated

Login

Don't have an account? Register now (free) for customized features, flight alerts, and more!